Time;durP1;ratioP1;P1;durP2;ratioP2;P2;SDS_P1;SDS_P2;PMS_P1;PMS_P2;Temp;Humidity;BMP_temperature;BMP_pressure;BME280_temperature;BME280_humidity;BME280_pressure;Samples;Min_cycle;Max_cycle;Signal;HPM_P1;HPM_P2
2024/01/31 00:00:22;;;;;;;27.02;12.65;;;8.50;98.40;;;;;;4923062;29;20088;-79
2024/01/31 00:03:19;;;;;;;22.63;11.82;;;8.60;98.30;;;;;;4910318;29;20033;-77
2024/01/31 00:05:44;;;;;;;30.85;12.52;;;8.60;98.30;;;;;;4923082;29;20256;-78
2024/01/31 00:08:10;;;;;;;26.55;13.40;;;8.60;98.30;;;;;;4926267;29;20092;-78
2024/01/31 00:10:36;;;;;;;29.58;12.10;;;8.50;98.20;;;;;;4906639;29;20311;-78
2024/01/31 00:13:02;;;;;;;25.95;13.05;;;8.50;98.60;;;;;;4891750;29;20031;-78
2024/01/31 00:15:30;;;;;;;30.45;13.45;;;8.50;98.30;;;;;;4908063;29;20211;-79
2024/01/31 00:17:56;;;;;;;25.65;12.10;;;8.50;98.30;;;;;;4904889;29;20024;-78
2024/01/31 00:20:25;;;;;;;28.98;13.05;;;8.50;98.40;;;;;;4925699;29;20040;-78
2024/01/31 00:22:53;;;;;;;28.13;12.60;;;8.50;98.50;;;;;;4924939;29;20032;-79
2024/01/31 00:29:15;;;;;;;29.02;12.80;;;8.60;98.80;;;;;;4912746;29;20031;-77
2024/01/31 00:31:40;;;;;;;23.77;11.95;;;8.60;98.70;;;;;;4849335;29;20052;-77
2024/01/31 00:34:06;;;;;;;26.58;12.65;;;8.60;98.60;;;;;;4905531;29;20036;-77
2024/01/31 00:36:32;;;;;;;26.08;12.07;;;8.60;98.50;;;;;;4890552;29;20247;-77
2024/01/31 00:38:59;;;;;;;26.50;11.98;;;8.60;98.50;;;;;;4906660;29;20025;-77
2024/01/31 00:41:25;;;;;;;24.73;13.15;;;8.50;98.50;;;;;;4907564;29;20334;-78
2024/01/31 00:43:51;;;;;;;26.67;12.38;;;8.50;98.60;;;;;;4907237;29;20028;-77
2024/01/31 00:46:39;;;;;;;22.60;11.30;;;8.50;98.70;;;;;;4891074;29;20236;-78
2024/01/31 00:49:05;;;;;;;21.95;10.88;;;8.50;98.80;;;;;;4908488;29;20060;-79
2024/01/31 00:51:53;;;;;;;21.67;11.85;;;8.50;98.80;;;;;;4885494;29;20035;-77
2024/01/31 00:54:18;;;;;;;18.20;10.30;;;8.50;98.80;;;;;;4888938;29;20031;-78
2024/01/31 00:57:13;;;;;;;22.80;11.35;;;8.50;98.80;;;;;;4891410;29;20057;-79
2024/01/31 00:59:40;;;;;;;15.77;9.98;;;8.50;99.00;;;;;;4871666;29;20061;-78
2024/01/31 01:02:06;;;;;;;18.33;10.40;;;8.50;99.20;;;;;;4893329;29;20041;-78
2024/01/31 01:04:34;;;;;;;18.48;10.10;;;8.40;99.20;;;;;;4888644;29;20044;-78
2024/01/31 01:07:18;;;;;;;19.25;10.55;;;8.40;99.60;;;;;;4866520;29;20027;-78
2024/01/31 01:09:45;;;;;;;22.38;10.32;;;8.40;99.50;;;;;;4923851;29;20028;-78
2024/01/31 01:12:11;;;;;;;19.20;10.40;;;8.30;99.80;;;;;;4888375;29;20029;-78
2024/01/31 01:14:37;;;;;;;16.05;9.70;;;8.30;99.90;;;;;;4874692;29;20036;-78
2024/01/31 01:17:05;;;;;;;20.35;10.02;;;8.20;99.90;;;;;;4890659;29;20036;-77
2024/01/31 01:19:46;;;;;;;16.63;9.60;;;8.20;99.90;;;;;;4889833;29;20108;-78
2024/01/31 01:22:15;;;;;;;17.48;9.70;;;8.30;99.90;;;;;;4906068;29;20060;-78
2024/01/31 01:24:41;;;;;;;17.33;10.27;;;8.30;99.90;;;;;;4881713;29;20037;-77
2024/01/31 01:27:09;;;;;;;16.42;10.05;;;8.30;99.90;;;;;;4887353;29;20323;-78
2024/01/31 01:29:35;;;;;;;17.25;10.40;;;8.30;99.90;;;;;;4886923;29;20272;-78
2024/01/31 01:32:13;;;;;;;18.98;10.10;;;8.30;99.90;;;;;;4871840;29;20105;-78
2024/01/31 01:35:04;;;;;;;17.80;9.82;;;8.30;99.90;;;;;;4887346;29;20039;-77
2024/01/31 01:37:29;;;;;;;18.90;10.18;;;8.30;99.90;;;;;;4886365;29;20041;-78
2024/01/31 01:39:55;;;;;;;16.17;9.52;;;8.30;99.90;;;;;;4888341;29;20044;-77
2024/01/31 01:42:21;;;;;;;18.73;9.82;;;8.30;99.90;;;;;;4886945;29;20040;-78
2024/01/31 01:44:50;;;;;;;18.50;10.05;;;8.30;99.90;;;;;;4887588;29;20041;-77
2024/01/31 01:47:19;;;;;;;18.23;10.80;;;8.30;99.90;;;;;;4887969;29;20378;-77
2024/01/31 01:49:46;;;;;;;21.13;10.55;;;8.30;99.90;;;;;;4898944;29;20362;-77
2024/01/31 01:52:13;;;;;;;18.92;10.25;;;8.30;99.90;;;;;;4917498;29;20054;-77
2024/01/31 01:54:39;;;;;;;20.90;11.40;;;8.30;99.80;;;;;;4924325;29;20035;-78
2024/01/31 01:57:45;;;;;;;18.67;10.27;;;8.20;99.70;;;;;;4924832;29;20071;-78
2024/01/31 02:00:47;;;;;;;25.33;11.32;;;8.30;99.80;;;;;;4933126;29;20326;-78
2024/01/31 02:03:14;;;;;;;19.77;10.73;;;8.20;99.80;;;;;;4925856;29;20040;-78
2024/01/31 02:05:44;;;;;;;18.48;10.13;;;8.30;99.90;;;;;;4923853;29;20035;-78
2024/01/31 02:08:10;;;;;;;15.13;9.90;;;8.20;99.90;;;;;;4925447;29;20223;-78
2024/01/31 02:10:36;;;;;;;16.85;10.55;;;8.20;99.90;;;;;;4924010;29;20071;-78
2024/01/31 02:13:14;;;;;;;17.15;9.73;;;8.10;99.90;;;;;;4925641;29;20315;-78
2024/01/31 02:15:59;;;;;;;15.90;9.93;;;8.20;99.90;;;;;;4925361;29;20039;-79
2024/01/31 02:21:48;;;;;;;18.63;10.32;;;8.30;99.90;;;;;;4928217;29;20033;-78
2024/01/31 02:24:14;;;;;;;18.65;9.77;;;8.30;99.90;;;;;;4927830;29;20036;-78
2024/01/31 02:26:49;;;;;;;16.63;10.32;;;8.30;99.90;;;;;;4926399;29;20042;-78
2024/01/31 02:29:20;;;;;;;16.77;9.40;;;8.30;99.90;;;;;;4912100;29;20028;-78
2024/01/31 02:31:49;;;;;;;18.65;9.75;;;8.30;99.90;;;;;;4927091;29;20043;-78
2024/01/31 02:34:44;;;;;;;14.85;9.27;;;8.30;99.90;;;;;;4912342;29;20047;-78
2024/01/31 02:37:12;;;;;;;15.93;9.88;;;8.30;99.90;;;;;;4928274;29;20034;-78
2024/01/31 02:39:38;;;;;;;18.08;10.90;;;8.20;99.90;;;;;;4926911;29;20032;-78
2024/01/31 02:42:22;;;;;;;17.23;10.00;;;8.20;99.60;;;;;;4927793;29;20071;-78
2024/01/31 02:44:51;;;;;;;17.30;10.38;;;8.20;99.70;;;;;;4927875;29;20051;-78
2024/01/31 02:47:44;;;;;;;18.50;10.40;;;8.30;99.90;;;;;;4928721;29;20044;-78
2024/01/31 02:50:10;;;;;;;16.02;10.40;;;8.30;99.90;;;;;;4911465;29;20055;-78
2024/01/31 02:52:45;;;;;;;15.93;10.00;;;8.30;99.50;;;;;;4927868;29;20230;-78
2024/01/31 02:55:17;;;;;;;15.93;9.82;;;8.30;99.60;;;;;;4928311;29;20103;-78
2024/01/31 02:58:13;;;;;;;18.23;10.27;;;8.40;99.90;;;;;;4940902;29;20285;-78
2024/01/31 03:00:39;;;;;;;17.33;10.02;;;8.40;99.50;;;;;;4942276;29;20047;-79
2024/01/31 03:03:11;;;;;;;19.95;10.75;;;8.40;99.60;;;;;;4926351;29;20048;-78
2024/01/31 03:05:43;;;;;;;14.65;9.77;;;8.40;99.60;;;;;;4926912;29;20032;-78
2024/01/31 03:08:15;;;;;;;19.77;10.15;;;8.40;99.50;;;;;;4927095;29;20188;-78
2024/01/31 03:10:44;;;;;;;16.73;10.77;;;8.40;99.60;;;;;;4910823;29;20378;-78
2024/01/31 03:13:11;;;;;;;19.23;10.15;;;8.30;99.50;;;;;;4926646;29;20107;-78
2024/01/31 03:15:40;;;;;;;16.08;9.68;;;8.30;99.50;;;;;;4926504;29;20064;-78
2024/01/31 03:18:09;;;;;;;16.88;9.38;;;8.30;99.50;;;;;;4910228;29;20186;-78
2024/01/31 03:20:47;;;;;;;14.32;9.40;;;8.30;99.40;;;;;;4908611;29;20048;-76
2024/01/31 03:23:15;;;;;;;16.17;10.05;;;8.30;99.30;;;;;;4909832;29;20185;-77
2024/01/31 03:25:43;;;;;;;;;;;8.30;99.30;;;;;;4925994;29;20116;-77
2024/01/31 03:29:01;;;;;;;13.90;9.68;;;8.30;99.30;;;;;;4897000;29;20232;-77
2024/01/31 03:31:51;;;;;;;13.82;9.15;;;8.30;99.30;;;;;;4890749;29;20040;-77
2024/01/31 03:34:45;;;;;;;14.52;9.85;;;8.30;99.20;;;;;;4907351;29;20040;-77
2024/01/31 03:37:35;;;;;;;17.42;10.05;;;8.30;99.30;;;;;;4906570;29;20048;-77
2024/01/31 03:40:42;;;;;;;16.08;9.50;;;8.30;99.20;;;;;;4910292;29;20060;-77
2024/01/31 03:43:08;;;;;;;15.77;9.18;;;8.30;99.40;;;;;;4927962;29;20028;-77
2024/01/31 03:45:47;;;;;;;17.00;9.38;;;8.30;99.60;;;;;;4894127;29;20040;-77
2024/01/31 03:48:15;;;;;;;15.93;9.30;;;8.30;99.40;;;;;;4925548;29;20036;-77
2024/01/31 03:54:19;;;;;;;14.55;8.93;;;8.40;99.60;;;;;;4927075;29;20039;-77
2024/01/31 03:56:45;;;;;;;16.48;9.23;;;8.40;99.50;;;;;;4887111;29;20060;-76
2024/01/31 03:59:11;;;;;;;16.65;9.38;;;8.40;99.40;;;;;;4925549;29;20245;-76
2024/01/31 04:01:50;;;;;;;15.73;9.07;;;8.40;99.30;;;;;;4909520;29;20047;-76
2024/01/31 04:04:15;;;;;;;15.40;9.40;;;8.40;99.70;;;;;;4926124;29;20060;-77
2024/01/31 04:06:41;;;;;;;16.58;9.55;;;8.40;99.60;;;;;;4926030;29;20032;-77
2024/01/31 04:09:07;;;;;;;14.40;9.02;;;8.50;99.40;;;;;;4927250;29;20030;-76
2024/01/31 04:11:34;;;;;;;16.60;9.10;;;8.50;99.30;;;;;;4926593;29;20031;-77
2024/01/31 04:14:23;;;;;;;15.00;9.23;;;8.50;99.50;;;;;;4926678;29;20051;-77
2024/01/31 04:17:15;;;;;;;11.98;8.70;;;8.50;99.80;;;;;;4885753;29;20059;-76
2024/01/31 04:23:15;;;;;;;17.92;9.30;;;8.40;99.30;;;;;;4886640;29;20057;-76
2024/01/31 04:25:53;;;;;;;13.98;9.70;;;8.40;99.30;;;;;;4871659;29;20036;-78
2024/01/31 04:28:43;;;;;;;13.85;9.10;;;8.40;99.30;;;;;;4871673;29;20317;-77
2024/01/31 04:31:44;;;;;;;15.50;9.73;;;8.40;99.30;;;;;;4871647;29;20041;-77
2024/01/31 04:34:19;;;;;;;12.73;9.13;;;8.30;99.40;;;;;;4877686;29;20037;-77
2024/01/31 04:37:12;;;;;;;17.70;9.63;;;8.30;99.40;;;;;;4870838;29;20065;-77
2024/01/31 04:39:38;;;;;;;15.32;9.63;;;8.30;99.60;;;;;;4869889;29;20035;-77
2024/01/31 04:42:04;;;;;;;15.32;10.20;;;8.30;99.60;;;;;;4886062;29;20048;-77
2024/01/31 04:45:14;;;;;;;16.52;8.77;;;8.30;99.50;;;;;;4886690;29;20033;-77
2024/01/31 04:47:54;;;;;;;14.10;9.02;;;8.30;99.50;;;;;;4870649;29;20041;-77
2024/01/31 04:50:46;;;;;;;13.65;8.77;;;8.30;99.60;;;;;;4886683;29;20093;-77
2024/01/31 04:53:18;;;;;;;15.02;8.43;;;8.30;99.70;;;;;;4895899;29;20172;-77
2024/01/31 04:56:11;;;;;;;16.70;9.10;;;8.30;99.60;;;;;;4925608;29;20080;-77
2024/01/31 04:58:37;;;;;;;20.10;9.77;;;8.40;99.60;;;;;;4925455;29;20067;-77
2024/01/31 05:01:05;;;;;;;16.25;9.30;;;8.30;99.50;;;;;;4924892;29;20044;-76
2024/01/31 05:03:30;;;;;;;17.00;9.40;;;8.40;99.70;;;;;;4925504;29;20062;-77
2024/01/31 05:05:56;;;;;;;14.95;8.82;;;8.30;99.70;;;;;;4925071;29;20206;-77
2024/01/31 05:08:22;;;;;;;14.38;9.27;;;8.40;99.80;;;;;;4924859;29;20149;-77
2024/01/31 05:11:16;;;;;;;15.73;8.75;;;8.40;99.70;;;;;;4922950;29;20024;-77
2024/01/31 05:17:19;;;;;;;13.95;8.77;;;8.40;99.60;;;;;;4926061;29;20042;-77
2024/01/31 05:19:48;;;;;;;13.57;8.38;;;8.30;99.90;;;;;;4925478;29;20031;-78
2024/01/31 05:22:16;;;;;;;14.57;8.30;;;8.40;99.90;;;;;;4925836;29;20214;-78
2024/01/31 05:24:42;;;;;;;18.75;10.82;;;8.40;99.90;;;;;;4924417;29;20083;-77
2024/01/31 05:27:11;;;;;;;15.98;10.10;;;8.40;99.90;;;;;;4925884;29;20036;-78
2024/01/31 05:29:49;;;;;;;16.38;9.52;;;8.30;99.80;;;;;;4924969;29;20420;-78
2024/01/31 05:32:42;;;;;;;13.57;8.73;;;8.30;99.90;;;;;;4915697;29;20036;-78
2024/01/31 05:35:08;;;;;;;16.45;8.95;;;8.40;99.90;;;;;;4924807;29;20047;-78
2024/01/31 05:37:34;;;;;;;15.77;9.88;;;8.40;99.90;;;;;;4924379;29;20032;-79
2024/01/31 05:40:16;;;;;;;16.48;9.10;;;8.40;99.90;;;;;;4924655;29;20040;-78
2024/01/31 05:42:43;;;;;;;15.73;8.77;;;8.40;99.90;;;;;;4908583;29;20143;-78
2024/01/31 05:45:09;;;;;;;15.25;8.38;;;8.40;99.90;;;;;;4924609;29;20044;-78
2024/01/31 05:47:35;;;;;;;16.00;9.10;;;8.40;99.90;;;;;;4924248;29;20028;-75
2024/01/31 05:50:01;;;;;;;13.82;8.38;;;8.40;99.90;;;;;;4924572;29;20044;-75
2024/01/31 05:52:27;;;;;;;15.00;8.75;;;8.50;99.90;;;;;;4925744;29;20051;-76
2024/01/31 05:54:53;;;;;;;16.10;8.88;;;8.50;99.90;;;;;;4926703;29;20091;-75
2024/01/31 05:57:18;;;;;;;13.93;9.25;;;8.50;99.90;;;;;;4929893;29;20032;-76
2024/01/31 05:59:44;;;;;;;16.85;9.70;;;8.50;99.90;;;;;;4932773;29;20039;-75
2024/01/31 06:02:09;;;;;;;14.82;9.60;;;8.50;99.90;;;;;;4938358;29;20099;-76
2024/01/31 06:04:35;;;;;;;17.10;9.23;;;8.50;99.90;;;;;;5036842;23;20055;-78
2024/01/31 06:07:25;;;;;;;14.80;9.13;;;8.50;99.90;;;;;;4953043;29;20120;-78
2024/01/31 06:09:53;;;;;;;15.50;8.85;;;8.40;99.90;;;;;;4952183;28;20203;-77
2024/01/31 06:12:19;;;;;;;14.00;8.48;;;8.50;99.90;;;;;;4948199;29;20067;-77
2024/01/31 06:14:44;;;;;;;16.88;9.07;;;8.40;99.90;;;;;;4930531;29;20079;-77
2024/01/31 06:17:10;;;;;;;11.95;8.18;;;8.40;99.90;;;;;;4948167;29;20063;-77
2024/01/31 06:19:38;;;;;;;15.75;8.95;;;8.40;99.90;;;;;;4947823;29;20035;-78
2024/01/31 06:22:44;;;;;;;15.63;9.45;;;8.40;99.90;;;;;;4936828;29;20028;-77
2024/01/31 06:25:13;;;;;;;14.25;9.05;;;8.40;99.90;;;;;;4903491;29;20115;-77
2024/01/31 06:27:38;;;;;;;20.33;10.95;;;8.40;99.90;;;;;;4943529;29;20071;-77
2024/01/31 06:30:05;;;;;;;17.40;10.90;;;8.30;99.90;;;;;;4947634;29;20027;-76
2024/01/31 06:32:47;;;;;;;16.90;10.40;;;8.30;99.90;;;;;;4946254;29;20242;-77
2024/01/31 06:35:43;;;;;;;21.65;11.35;;;8.30;99.90;;;;;;4947593;29;20075;-77
2024/01/31 06:38:12;;;;;;;18.67;10.77;;;8.30;99.90;;;;;;4944749;29;20043;-77
2024/01/31 06:40:45;;;;;;;20.13;10.95;;;8.40;99.90;;;;;;4938596;29;20031;-77
2024/01/31 06:43:13;;;;;;;21.42;11.77;;;8.40;99.90;;;;;;4925123;29;20055;-77
2024/01/31 06:45:39;;;;;;;18.88;11.00;;;8.40;99.90;;;;;;4929289;29;20040;-77
2024/01/31 06:48:09;;;;;;;18.20;11.10;;;8.40;99.90;;;;;;4930875;29;20035;-76
2024/01/31 06:50:38;;;;;;;18.50;12.15;;;8.40;99.90;;;;;;4930704;29;20055;-77
2024/01/31 06:53:04;;;;;;;20.50;11.55;;;8.40;99.90;;;;;;4928349;29;20035;-77
2024/01/31 06:55:29;;;;;;;22.25;11.07;;;8.40;99.90;;;;;;4926186;29;20031;-77
2024/01/31 06:58:09;;;;;;;19.55;12.05;;;8.50;99.90;;;;;;4927106;29;20031;-77
2024/01/31 07:00:40;;;;;;;21.67;12.27;;;8.40;99.90;;;;;;4926295;29;20226;-77
2024/01/31 07:03:05;;;;;;;20.33;11.50;;;8.40;99.90;;;;;;4933173;29;20056;-76
2024/01/31 07:05:31;;;;;;;22.20;11.73;;;8.40;99.90;;;;;;4894508;29;20214;-76
2024/01/31 07:07:57;;;;;;;20.83;11.40;;;8.40;99.90;;;;;;4927694;29;20214;-77
2024/01/31 07:10:49;;;;;;;20.48;11.20;;;8.40;99.90;;;;;;4910921;29;20068;-77
2024/01/31 07:13:15;;;;;;;19.58;10.25;;;8.30;99.90;;;;;;4909701;29;20059;-76
2024/01/31 07:15:43;;;;;;;24.25;10.80;;;8.30;99.90;;;;;;4875638;29;20048;-76
2024/01/31 07:18:12;;;;;;;19.92;9.80;;;8.20;99.90;;;;;;4908817;29;20027;-78
2024/01/31 07:20:38;;;;;;;18.88;10.27;;;8.20;99.90;;;;;;4875937;29;20064;-77
2024/01/31 07:23:04;;;;;;;17.25;10.20;;;8.20;99.90;;;;;;4909564;29;20051;-77
2024/01/31 07:25:30;;;;;;;15.13;9.18;;;8.20;99.90;;;;;;4926667;29;20040;-77
2024/01/31 07:27:59;;;;;;;15.65;9.98;;;8.20;99.90;;;;;;4910452;29;20059;-76
2024/01/31 07:30:24;;;;;;;17.60;9.35;;;8.20;99.90;;;;;;4910193;29;20028;-76
2024/01/31 07:32:53;;;;;;;19.48;9.80;;;8.30;99.90;;;;;;4927387;29;20023;-76
2024/01/31 07:35:20;;;;;;;20.23;10.52;;;8.30;99.90;;;;;;4927576;29;20218;-76
2024/01/31 07:37:48;;;;;;;16.63;9.90;;;8.30;99.90;;;;;;4910315;29;20223;-76
2024/01/31 07:40:16;;;;;;;14.57;9.07;;;8.40;99.90;;;;;;4910453;29;20067;-76
2024/01/31 07:42:48;;;;;;;15.43;9.80;;;8.40;99.90;;;;;;4894373;29;20310;-75
2024/01/31 07:45:16;;;;;;;15.00;9.68;;;8.50;99.90;;;;;;4910506;29;20087;-79
2024/01/31 07:47:51;;;;;;;17.90;10.23;;;8.50;99.90;;;;;;4927287;29;20294;-78
2024/01/31 07:50:17;;;;;;;19.08;10.65;;;8.60;99.90;;;;;;4895040;29;20032;-79
2024/01/31 07:52:43;;;;;;;17.27;9.95;;;8.60;99.90;;;;;;4897298;29;20028;-77
2024/01/31 07:55:18;;;;;;;15.57;10.00;;;8.70;99.90;;;;;;4912100;29;20028;-78
2024/01/31 07:58:11;;;;;;;21.45;10.90;;;8.70;99.90;;;;;;4912259;29;20083;-78
2024/01/31 08:04:19;;;;;;;16.27;10.95;;;8.70;99.90;;;;;;4888150;29;20402;-76
2024/01/31 08:06:44;;;;;;;19.65;10.63;;;8.70;99.90;;;;;;4903679;29;20032;-78
2024/01/31 08:09:11;;;;;;;20.77;11.68;;;8.70;99.90;;;;;;4887707;29;20092;-74
2024/01/31 08:11:42;;;;;;;19.30;10.60;;;8.70;99.90;;;;;;4904003;29;20039;-77
2024/01/31 08:14:08;;;;;;;17.30;10.48;;;8.70;99.90;;;;;;4904759;29;20055;-75
2024/01/31 08:16:34;;;;;;;21.05;10.45;;;8.70;99.90;;;;;;4903876;29;20044;-77
2024/01/31 08:18:59;;;;;;;17.48;10.35;;;8.70;99.90;;;;;;4888416;29;20138;-75
2024/01/31 08:21:25;;;;;;;16.52;10.55;;;8.70;99.90;;;;;;4903991;29;20060;-75
2024/01/31 08:23:51;;;;;;;19.08;10.20;;;8.70;99.90;;;;;;4903946;29;20070;-76
2024/01/31 08:26:17;;;;;;;17.33;10.50;;;8.70;99.90;;;;;;4904287;29;20040;-75
2024/01/31 08:28:43;;;;;;;18.33;9.70;;;8.60;99.90;;;;;;4904127;29;20145;-75
2024/01/31 08:31:09;;;;;;;17.70;10.38;;;8.60;99.90;;;;;;4889080;29;20043;-75
2024/01/31 08:33:35;;;;;;;16.70;10.23;;;8.60;99.90;;;;;;4904057;29;20103;-75
2024/01/31 08:36:00;;;;;;;17.92;9.38;;;8.70;99.90;;;;;;4888874;29;20366;-75
2024/01/31 08:38:26;;;;;;;16.95;10.00;;;8.70;99.90;;;;;;4903822;29;20068;-75
2024/01/31 08:40:52;;;;;;;16.48;9.70;;;8.80;99.90;;;;;;4922984;29;20043;-74
2024/01/31 08:43:18;;;;;;;16.02;9.75;;;8.80;99.90;;;;;;4941593;29;20050;-76
2024/01/31 08:45:44;;;;;;;15.82;9.70;;;8.80;99.90;;;;;;4942696;29;20036;-76
2024/01/31 08:48:10;;;;;;;17.02;9.95;;;9.00;99.90;;;;;;4941671;29;20023;-76
2024/01/31 08:50:36;;;;;;;17.15;9.85;;;9.00;99.90;;;;;;4942230;29;20054;-76
2024/01/31 08:53:02;;;;;;;19.45;10.75;;;9.10;99.90;;;;;;4943159;29;20102;-76
2024/01/31 08:55:27;;;;;;;23.38;10.02;;;9.20;99.90;;;;;;4943941;29;20054;-76
2024/01/31 08:57:53;;;;;;;20.10;10.02;;;9.30;99.70;;;;;;4930657;29;20032;-73
2024/01/31 09:00:19;;;;;;;21.85;10.35;;;9.30;99.50;;;;;;4924108;29;20084;-74
2024/01/31 09:02:45;;;;;;;16.98;9.13;;;9.30;99.10;;;;;;4922809;29;20167;-74
2024/01/31 09:05:10;;;;;;;22.50;9.95;;;9.30;99.20;;;;;;4924728;29;20055;-75
2024/01/31 09:07:39;;;;;;;22.70;10.65;;;9.30;99.20;;;;;;4924367;29;20028;-75
2024/01/31 09:10:05;;;;;;;23.15;10.30;;;9.40;99.30;;;;;;4923783;29;20087;-75
2024/01/31 09:12:31;;;;;;;15.35;9.10;;;9.60;99.10;;;;;;4907660;29;20032;-76
2024/01/31 09:14:56;;;;;;;18.25;9.80;;;9.60;99.00;;;;;;4940491;29;20028;-75
2024/01/31 09:17:22;;;;;;;20.35;10.20;;;9.60;98.90;;;;;;4943969;29;20046;-75
2024/01/31 09:19:49;;;;;;;15.52;9.43;;;9.70;99.00;;;;;;4943303;29;20043;-75
2024/01/31 09:22:15;;;;;;;19.20;9.95;;;9.80;99.20;;;;;;4930148;29;20032;-75
2024/01/31 09:24:41;;;;;;;15.27;9.52;;;10.00;99.40;;;;;;4924301;29;20035;-75
2024/01/31 09:27:06;;;;;;;16.38;9.55;;;10.10;99.00;;;;;;4923605;29;20024;-75
2024/01/31 09:29:34;;;;;;;16.65;9.80;;;10.30;99.00;;;;;;4926053;29;20040;-76
2024/01/31 09:32:03;;;;;;;20.25;10.02;;;10.40;98.70;;;;;;4943039;29;20027;-76
2024/01/31 09:34:29;;;;;;;18.15;10.45;;;10.50;98.30;;;;;;4946924;29;20615;-76
2024/01/31 09:36:55;;;;;;;18.13;11.35;;;10.50;98.20;;;;;;4946634;29;20035;-76
2024/01/31 09:39:20;;;;;;;18.70;10.13;;;10.50;98.10;;;;;;4944760;29;20023;-76
2024/01/31 09:41:49;;;;;;;19.45;11.05;;;10.50;98.00;;;;;;4936293;29;20058;-76
2024/01/31 09:44:16;;;;;;;18.20;11.05;;;10.60;97.80;;;;;;4937851;29;20035;-76
2024/01/31 09:46:47;;;;;;;23.02;11.10;;;10.70;97.80;;;;;;4937679;29;20034;-74
2024/01/31 09:49:13;;;;;;;21.63;11.63;;;10.70;97.80;;;;;;4935680;29;20279;-77
2024/01/31 09:51:42;;;;;;;16.80;10.63;;;10.70;97.90;;;;;;4937293;29;20043;-75
2024/01/31 09:54:09;;;;;;;17.95;11.27;;;10.80;98.00;;;;;;4943091;29;20023;-75
2024/01/31 09:56:36;;;;;;;18.42;11.18;;;10.80;97.90;;;;;;4946753;29;20047;-76
2024/01/31 09:59:05;;;;;;;19.45;10.52;;;10.90;98.10;;;;;;4947326;29;20087;-76
2024/01/31 10:01:31;;;;;;;20.38;12.02;;;10.90;98.10;;;;;;4946315;29;20019;-75
2024/01/31 10:03:57;;;;;;;22.90;10.77;;;10.80;98.30;;;;;;4938575;29;20060;-76
2024/01/31 10:06:29;;;;;;;20.23;11.70;;;11.00;98.30;;;;;;4928439;29;20378;-76
2024/01/31 10:09:18;;;;;;;25.98;12.48;;;11.00;98.10;;;;;;4910630;29;20027;-77
2024/01/31 10:11:47;;;;;;;20.77;11.93;;;11.00;98.20;;;;;;4910642;29;20099;-77
2024/01/31 10:14:13;;;;;;;20.58;12.40;;;11.00;98.30;;;;;;4914643;29;20032;-77
2024/01/31 10:16:39;;;;;;;20.38;11.90;;;11.00;98.40;;;;;;4932323;29;20035;-76
2024/01/31 10:19:08;;;;;;;20.08;11.95;;;11.00;98.50;;;;;;4935797;29;20048;-75
2024/01/31 10:21:33;;;;;;;21.38;12.38;;;11.00;98.40;;;;;;4918262;29;20036;-78
2024/01/31 10:24:05;;;;;;;19.13;11.65;;;11.10;98.50;;;;;;4932321;29;20310;-77
2024/01/31 10:26:45;;;;;;;16.88;11.63;;;11.20;98.30;;;;;;4926977;29;20142;-77
2024/01/31 10:29:45;;;;;;;19.67;12.77;;;11.30;98.30;;;;;;4927503;29;20024;-77
2024/01/31 10:32:40;;;;;;;18.75;12.40;;;11.40;98.20;;;;;;4930454;29;20107;-77
2024/01/31 10:35:29;;;;;;;20.92;12.45;;;11.50;98.10;;;;;;4909408;29;20021;-76
2024/01/31 10:38:32;;;;;;;25.00;12.20;;;11.50;98.10;;;;;;4894340;29;20044;-76
2024/01/31 10:41:06;;;;;;;17.98;12.35;;;11.50;98.50;;;;;;4914793;29;20033;-76
2024/01/31 10:47:01;;;;;;;24.10;13.70;;;11.50;98.10;;;;;;4919625;29;20345;-77
2024/01/31 10:49:36;;;;;;;17.30;11.70;;;11.60;97.90;;;;;;4923325;29;20083;-78
2024/01/31 10:52:05;;;;;;;17.20;11.52;;;11.60;97.90;;;;;;4908567;29;20048;-76
2024/01/31 10:54:38;;;;;;;19.23;11.95;;;11.70;98.00;;;;;;4927826;29;20071;-75
2024/01/31 10:57:06;;;;;;;16.77;11.23;;;11.70;97.70;;;;;;4939331;29;20051;-77
2024/01/31 10:59:41;;;;;;;21.75;12.63;;;11.70;97.60;;;;;;4922465;29;20103;-77
2024/01/31 11:02:17;;;;;;;16.58;10.73;;;11.70;97.60;;;;;;4912649;29;20035;-76
2024/01/31 11:04:44;;;;;;;23.10;12.18;;;11.80;97.80;;;;;;4915394;29;20059;-77
2024/01/31 11:07:20;;;;;;;21.55;11.82;;;11.80;97.60;;;;;;4929720;29;20321;-76
2024/01/31 11:09:48;;;;;;;16.83;11.15;;;11.90;97.60;;;;;;4944667;29;20027;-77
2024/01/31 11:12:15;;;;;;;20.25;11.98;;;11.80;97.60;;;;;;4945884;29;20108;-77
2024/01/31 11:14:44;;;;;;;18.88;12.00;;;11.70;97.70;;;;;;4944333;29;20023;-76
2024/01/31 11:17:26;;;;;;;20.42;11.35;;;11.70;98.00;;;;;;4944834;29;20028;-73
2024/01/31 11:19:56;;;;;;;17.83;12.88;;;11.70;97.90;;;;;;4945292;29;20242;-75
2024/01/31 11:22:22;;;;;;;18.75;12.13;;;11.70;97.90;;;;;;4930754;29;20048;-76
2024/01/31 11:25:03;;;;;;;19.05;11.88;;;11.80;97.70;;;;;;4926254;29;20104;-75
2024/01/31 11:27:29;;;;;;;18.90;11.40;;;12.00;97.50;;;;;;4925957;29;20028;-76
2024/01/31 11:29:55;;;;;;;18.35;11.73;;;12.20;97.20;;;;;;4937997;29;20159;-76
2024/01/31 11:32:22;;;;;;;20.05;12.00;;;12.30;97.10;;;;;;4945197;29;20031;-77
2024/01/31 11:34:58;;;;;;;19.80;11.68;;;12.30;96.70;;;;;;4944396;29;20371;-76
2024/01/31 11:37:24;;;;;;;22.00;11.23;;;12.40;96.60;;;;;;4945416;29;20039;-75
2024/01/31 11:39:49;;;;;;;15.65;10.80;;;12.50;96.40;;;;;;4945049;29;20043;-76
2024/01/31 11:42:15;;;;;;;17.15;11.30;;;12.70;96.40;;;;;;4945333;29;20115;-76
2024/01/31 11:44:41;;;;;;;18.02;11.30;;;12.70;96.10;;;;;;4943914;29;20023;-75
2024/01/31 11:47:06;;;;;;;18.75;11.77;;;12.90;95.80;;;;;;4944702;29;20032;-76
2024/01/31 11:49:32;;;;;;;17.67;11.10;;;13.00;95.60;;;;;;4943392;29;20087;-75
2024/01/31 11:51:58;;;;;;;20.63;12.23;;;13.10;95.90;;;;;;4944581;29;20078;-75
2024/01/31 11:54:23;;;;;;;21.10;12.50;;;13.30;95.10;;;;;;4947490;29;20027;-78
2024/01/31 11:56:50;;;;;;;17.08;11.73;;;13.20;95.10;;;;;;4944410;29;20042;-75
2024/01/31 11:59:16;;;;;;;18.48;11.45;;;13.20;94.90;;;;;;4945292;29;20518;-76
2024/01/31 12:01:42;;;;;;;20.42;12.50;;;13.30;94.80;;;;;;4944677;29;20172;-76
2024/01/31 12:04:08;;;;;;;18.75;11.48;;;13.30;94.70;;;;;;4935848;29;20111;-76
2024/01/31 12:06:33;;;;;;;21.42;11.40;;;13.20;94.90;;;;;;4924852;29;20313;-75
2024/01/31 12:09:00;;;;;;;18.35;11.80;;;13.30;95.20;;;;;;4925150;29;20112;-75
2024/01/31 12:11:31;;;;;;;18.55;12.50;;;13.30;95.00;;;;;;4925782;29;20044;-77
2024/01/31 12:14:00;;;;;;;19.77;13.40;;;13.40;94.90;;;;;;4909723;29;20020;-77
2024/01/31 12:16:28;;;;;;;21.75;13.60;;;13.30;94.80;;;;;;4925727;29;20032;-77
2024/01/31 12:19:00;;;;;;;17.85;11.82;;;13.40;94.70;;;;;;4908870;29;20287;-76
2024/01/31 12:21:26;;;;;;;21.17;12.68;;;13.40;94.80;;;;;;4893204;29;20036;-77
2024/01/31 12:23:52;;;;;;;20.13;12.32;;;13.40;94.80;;;;;;4908363;29;20035;-77
2024/01/31 12:26:21;;;;;;;20.67;12.27;;;13.50;95.20;;;;;;4905443;29;20324;-77
2024/01/31 12:28:54;;;;;;;20.90;12.68;;;13.50;94.90;;;;;;4923953;29;20066;-80
2024/01/31 12:31:21;;;;;;;17.80;11.50;;;13.80;94.40;;;;;;4908924;29;20044;-77
2024/01/31 12:33:47;;;;;;;21.73;12.73;;;13.90;94.00;;;;;;4883687;29;20051;-76
2024/01/31 12:36:16;;;;;;;18.95;12.65;;;14.00;93.90;;;;;;4909609;29;20031;-78
2024/01/31 12:38:45;;;;;;;18.63;12.02;;;14.20;93.30;;;;;;4883807;29;20302;-77
2024/01/31 12:41:34;;;;;;;17.10;11.45;;;14.40;93.20;;;;;;4902264;29;20059;-77
2024/01/31 12:44:06;;;;;;;18.48;12.15;;;14.20;93.20;;;;;;4880285;29;20020;-76
2024/01/31 12:46:32;;;;;;;19.63;12.23;;;14.10;93.30;;;;;;4907611;29;20354;-77
2024/01/31 12:48:58;;;;;;;20.20;11.43;;;14.20;93.30;;;;;;4892746;29;20210;-77
2024/01/31 12:51:24;;;;;;;15.82;11.35;;;14.40;93.30;;;;;;4892888;29;20044;-76
2024/01/31 12:53:53;;;;;;;16.45;11.30;;;14.20;93.50;;;;;;4907929;29;20107;-77
2024/01/31 12:56:24;;;;;;;16.70;11.05;;;14.00;93.60;;;;;;4925708;29;20111;-78
2024/01/31 12:58:49;;;;;;;18.02;11.15;;;14.00;93.80;;;;;;4892550;29;20047;-76
2024/01/31 13:01:17;;;;;;;18.40;10.85;;;13.90;93.90;;;;;;4896125;29;20074;-77
2024/01/31 13:03:43;;;;;;;17.30;10.13;;;13.90;93.90;;;;;;4895427;29;20032;-77
2024/01/31 13:06:09;;;;;;;15.15;10.15;;;13.90;94.00;;;;;;4943333;29;20047;-77
2024/01/31 13:08:35;;;;;;;17.75;11.45;;;13.90;93.80;;;;;;4943157;29;20036;-77
2024/01/31 13:11:04;;;;;;;19.23;10.85;;;14.00;93.90;;;;;;4936806;29;20023;-76
2024/01/31 13:13:57;;;;;;;17.25;10.50;;;13.80;94.10;;;;;;4907882;29;20051;-77
2024/01/31 13:16:26;;;;;;;19.42;10.77;;;13.70;94.20;;;;;;4907893;29;20266;-75
2024/01/31 13:18:52;;;;;;;17.10;10.52;;;13.80;94.20;;;;;;4924911;29;20393;-76
2024/01/31 13:21:17;;;;;;;17.27;11.48;;;13.80;94.20;;;;;;4938378;29;20043;-76
2024/01/31 13:23:43;;;;;;;18.38;11.98;;;13.70;94.60;;;;;;4942597;29;20243;-75